sensor_id;sensor_type;location;lat;lon;timestamp;pressure;altitude;pressure_sealevel;temperature;humidity
13209;BME280;6669;42.678;23.332;2023-03-22T00:02:08;94180.31;;;9.60;100.00
13209;BME280;6669;42.678;23.332;2023-03-22T00:04:36;94177.81;;;9.52;100.00
13209;BME280;6669;42.678;23.332;2023-03-22T00:07:04;94182.28;;;9.58;100.00
13209;BME280;6669;42.678;23.332;2023-03-22T00:09:33;94180.94;;;9.47;100.00
13209;BME280;6669;42.678;23.332;2023-03-22T00:12:02;94190.63;;;9.54;100.00
13209;BME280;6669;42.678;23.332;2023-03-22T00:14:30;94188.06;;;9.45;100.00
13209;BME280;6669;42.678;23.332;2023-03-22T00:16:58;94181.75;;;9.25;100.00
13209;BME280;6669;42.678;23.332;2023-03-22T00:19:26;94174.28;;;9.07;100.00
13209;BME280;6669;42.678;23.332;2023-03-22T00:21:55;94174.63;;;9.27;100.00
13209;BME280;6669;42.678;23.332;2023-03-22T00:24:23;94187.19;;;9.38;100.00
13209;BME280;6669;42.678;23.332;2023-03-22T00:26:52;94170.94;;;9.21;100.00
13209;BME280;6669;42.678;23.332;2023-03-22T00:29:20;94169.75;;;9.09;100.00
13209;BME280;6669;42.678;23.332;2023-03-22T00:31:49;94174.50;;;8.97;100.00
13209;BME280;6669;42.678;23.332;2023-03-22T00:34:19;94159.03;;;8.89;100.00
13209;BME280;6669;42.678;23.332;2023-03-22T00:36:48;94174.75;;;8.87;100.00
13209;BME280;6669;42.678;23.332;2023-03-22T00:39:17;94169.97;;;8.76;100.00
13209;BME280;6669;42.678;23.332;2023-03-22T00:41:45;94161.16;;;8.62;100.00
13209;BME280;6669;42.678;23.332;2023-03-22T00:44:15;94175.31;;;8.74;100.00
13209;BME280;6669;42.678;23.332;2023-03-22T00:46:43;94174.03;;;8.70;100.00
13209;BME280;6669;42.678;23.332;2023-03-22T00:49:11;94164.53;;;8.62;100.00
13209;BME280;6669;42.678;23.332;2023-03-22T00:51:39;94161.28;;;8.60;100.00
13209;BME280;6669;42.678;23.332;2023-03-22T00:54:07;94171.16;;;8.65;100.00
13209;BME280;6669;42.678;23.332;2023-03-22T00:56:35;94170.66;;;8.70;100.00
13209;BME280;6669;42.678;23.332;2023-03-22T00:59:03;94151.59;;;8.62;100.00
13209;BME280;6669;42.678;23.332;2023-03-22T01:01:33;94170.97;;;8.66;100.00
13209;BME280;6669;42.678;23.332;2023-03-22T01:04:01;94171.56;;;8.77;100.00
13209;BME280;6669;42.678;23.332;2023-03-22T01:06:30;94163.78;;;8.77;100.00
13209;BME280;6669;42.678;23.332;2023-03-22T01:08:58;94164.22;;;8.65;100.00
13209;BME280;6669;42.678;23.332;2023-03-22T01:11:26;94170.13;;;8.74;100.00
13209;BME280;6669;42.678;23.332;2023-03-22T01:13:54;94162.63;;;8.79;100.00
13209;BME280;6669;42.678;23.332;2023-03-22T01:16:22;94155.88;;;8.78;100.00
13209;BME280;6669;42.678;23.332;2023-03-22T01:18:52;94151.41;;;8.64;100.00
13209;BME280;6669;42.678;23.332;2023-03-22T01:21:20;94142.38;;;8.60;100.00
13209;BME280;6669;42.678;23.332;2023-03-22T01:23:48;94152.63;;;8.76;100.00
13209;BME280;6669;42.678;23.332;2023-03-22T01:26:16;94163.34;;;8.73;100.00
13209;BME280;6669;42.678;23.332;2023-03-22T01:28:44;94156.59;;;8.64;100.00
13209;BME280;6669;42.678;23.332;2023-03-22T01:31:12;94143.59;;;8.41;100.00
13209;BME280;6669;42.678;23.332;2023-03-22T01:33:40;94133.41;;;8.39;100.00
13209;BME280;6669;42.678;23.332;2023-03-22T01:36:10;94151.34;;;8.49;100.00
13209;BME280;6669;42.678;23.332;2023-03-22T01:38:38;94149.38;;;8.51;100.00
13209;BME280;6669;42.678;23.332;2023-03-22T01:41:06;94148.59;;;8.42;100.00
13209;BME280;6669;42.678;23.332;2023-03-22T01:43:34;94138.41;;;8.41;100.00
13209;BME280;6669;42.678;23.332;2023-03-22T01:46:03;94125.94;;;8.36;100.00
13209;BME280;6669;42.678;23.332;2023-03-22T01:48:33;94140.50;;;8.45;100.00
13209;BME280;6669;42.678;23.332;2023-03-22T01:51:04;94140.88;;;8.34;100.00
13209;BME280;6669;42.678;23.332;2023-03-22T01:53:39;94135.72;;;8.26;100.00
13209;BME280;6669;42.678;23.332;2023-03-22T01:56:09;94128.72;;;8.03;100.00
13209;BME280;6669;42.678;23.332;2023-03-22T01:58:38;94148.44;;;8.04;100.00
13209;BME280;6669;42.678;23.332;2023-03-22T02:01:09;94121.66;;;7.89;100.00
13209;BME280;6669;42.678;23.332;2023-03-22T02:03:44;94126.31;;;7.93;100.00
13209;BME280;6669;42.678;23.332;2023-03-22T02:06:14;94142.78;;;8.00;100.00
13209;BME280;6669;42.678;23.332;2023-03-22T02:08:44;94149.88;;;8.15;100.00
13209;BME280;6669;42.678;23.332;2023-03-22T02:11:15;94138.53;;;8.16;100.00
13209;BME280;6669;42.678;23.332;2023-03-22T02:14:02;94149.00;;;8.23;100.00
13209;BME280;6669;42.678;23.332;2023-03-22T02:16:44;94138.53;;;8.16;100.00
13209;BME280;6669;42.678;23.332;2023-03-22T02:19:52;94143.72;;;8.16;100.00
13209;BME280;6669;42.678;23.332;2023-03-22T02:22:51;94148.91;;;8.08;100.00
13209;BME280;6669;42.678;23.332;2023-03-22T02:25:45;94148.72;;;8.09;100.00
13209;BME280;6669;42.678;23.332;2023-03-22T02:28:21;94150.03;;;8.13;100.00
13209;BME280;6669;42.678;23.332;2023-03-22T02:34:27;94154.56;;;8.11;100.00
13209;BME280;6669;42.678;23.332;2023-03-22T02:40:14;94163.19;;;7.95;100.00
13209;BME280;6669;42.678;23.332;2023-03-22T02:42:53;94161.59;;;7.86;100.00
13209;BME280;6669;42.678;23.332;2023-03-22T02:45:27;94151.91;;;7.80;100.00
13209;BME280;6669;42.678;23.332;2023-03-22T02:48:03;94160.16;;;7.92;100.00
13209;BME280;6669;42.678;23.332;2023-03-22T02:50:37;94162.25;;;7.88;100.00
13209;BME280;6669;42.678;23.332;2023-03-22T02:53:13;94160.44;;;7.97;100.00
13209;BME280;6669;42.678;23.332;2023-03-22T02:55:49;94152.34;;;8.00;100.00
13209;BME280;6669;42.678;23.332;2023-03-22T02:58:21;94169.97;;;8.05;100.00
13209;BME280;6669;42.678;23.332;2023-03-22T03:00:54;94164.50;;;7.91;100.00
13209;BME280;6669;42.678;23.332;2023-03-22T03:03:27;94167.06;;;7.99;100.00
13209;BME280;6669;42.678;23.332;2023-03-22T03:05:58;94152.69;;;7.89;100.00
13209;BME280;6669;42.678;23.332;2023-03-22T03:08:29;94166.91;;;7.93;100.00
13209;BME280;6669;42.678;23.332;2023-03-22T03:10:58;94164.81;;;7.96;100.00
13209;BME280;6669;42.678;23.332;2023-03-22T03:13:27;94169.84;;;7.90;100.00
13209;BME280;6669;42.678;23.332;2023-03-22T03:15:56;94171.78;;;7.96;100.00
13209;BME280;6669;42.678;23.332;2023-03-22T03:18:35;94168.25;;;7.80;100.00
13209;BME280;6669;42.678;23.332;2023-03-22T03:21:13;94178.25;;;7.83;100.00
13209;BME280;6669;42.678;23.332;2023-03-22T03:23:48;94180.00;;;7.99;100.00
13209;BME280;6669;42.678;23.332;2023-03-22T03:26:28;94160.97;;;7.84;100.00
13209;BME280;6669;42.678;23.332;2023-03-22T03:29:03;94157.69;;;7.90;100.00
13209;BME280;6669;42.678;23.332;2023-03-22T03:31:36;94159.78;;;8.03;100.00
13209;BME280;6669;42.678;23.332;2023-03-22T03:34:11;94159.78;;;8.03;100.00
13209;BME280;6669;42.678;23.332;2023-03-22T03:36:44;94177.81;;;8.19;100.00
13209;BME280;6669;42.678;23.332;2023-03-22T03:39:13;94179.72;;;8.26;100.00
13209;BME280;6669;42.678;23.332;2023-03-22T03:41:45;94185.56;;;8.28;100.00
13209;BME280;6669;42.678;23.332;2023-03-22T03:44:15;94180.03;;;8.31;100.00
13209;BME280;6669;42.678;23.332;2023-03-22T03:46:45;94168.72;;;8.32;100.00
13209;BME280;6669;42.678;23.332;2023-03-22T03:49:15;94185.56;;;8.28;100.00
13209;BME280;6669;42.678;23.332;2023-03-22T03:51:48;94172.13;;;8.24;100.00
13209;BME280;6669;42.678;23.332;2023-03-22T03:54:17;94176.25;;;8.10;100.00
13209;BME280;6669;42.678;23.332;2023-03-22T03:56:46;94183.53;;;8.07;100.00
13209;BME280;6669;42.678;23.332;2023-03-22T03:59:15;94184.00;;;8.10;100.00
13209;BME280;6669;42.678;23.332;2023-03-22T04:01:44;94190.47;;;8.14;100.00
13209;BME280;6669;42.678;23.332;2023-03-22T04:04:17;94176.59;;;8.07;100.00
13209;BME280;6669;42.678;23.332;2023-03-22T04:06:53;94192.78;;;8.01;100.00
13209;BME280;6669;42.678;23.332;2023-03-22T04:09:23;94174.72;;;7.84;100.00
13209;BME280;6669;42.678;23.332;2023-03-22T04:11:52;94181.81;;;7.82;100.00
13209;BME280;6669;42.678;23.332;2023-03-22T04:14:21;94191.56;;;7.80;100.00
13209;BME280;6669;42.678;23.332;2023-03-22T04:16:49;94190.91;;;7.78;100.00
13209;BME280;6669;42.678;23.332;2023-03-22T04:19:18;94200.28;;;7.79;100.00
13209;BME280;6669;42.678;23.332;2023-03-22T04:21:47;94183.66;;;7.65;100.00
13209;BME280;6669;42.678;23.332;2023-03-22T04:24:15;94177.69;;;7.65;100.00
13209;BME280;6669;42.678;23.332;2023-03-22T04:26:43;94177.69;;;7.57;100.00
13209;BME280;6669;42.678;23.332;2023-03-22T04:29:12;94190.94;;;7.62;100.00
13209;BME280;6669;42.678;23.332;2023-03-22T04:31:42;94190.78;;;7.55;100.00
13209;BME280;6669;42.678;23.332;2023-03-22T04:34:10;94207.25;;;7.62;100.00
13209;BME280;6669;42.678;23.332;2023-03-22T04:36:38;94209.34;;;7.67;100.00
13209;BME280;6669;42.678;23.332;2023-03-22T04:39:09;94204.50;;;7.64;100.00
13209;BME280;6669;42.678;23.332;2023-03-22T04:41:37;94203.69;;;7.72;100.00
13209;BME280;6669;42.678;23.332;2023-03-22T04:44:06;94203.53;;;7.73;100.00
13209;BME280;6669;42.678;23.332;2023-03-22T04:46:35;94193.81;;;7.67;100.00
13209;BME280;6669;42.678;23.332;2023-03-22T04:49:04;94205.44;;;7.71;100.00
13209;BME280;6669;42.678;23.332;2023-03-22T04:51:32;94213.88;;;7.73;100.00
13209;BME280;6669;42.678;23.332;2023-03-22T04:54:00;94217.41;;;7.80;100.00
13209;BME280;6669;42.678;23.332;2023-03-22T04:56:28;94211.94;;;7.75;100.00
13209;BME280;6669;42.678;23.332;2023-03-22T04:58:56;94223.56;;;7.71;100.00
13209;BME280;6669;42.678;23.332;2023-03-22T05:01:24;94224.06;;;7.66;100.00
13209;BME280;6669;42.678;23.332;2023-03-22T05:03:54;94220.00;;;7.72;100.00
13209;BME280;6669;42.678;23.332;2023-03-22T05:06:22;94223.41;;;7.73;100.00
13209;BME280;6669;42.678;23.332;2023-03-22T05:08:50;94196.56;;;7.57;100.00
13209;BME280;6669;42.678;23.332;2023-03-22T05:11:18;94223.06;;;7.76;100.00
13209;BME280;6669;42.678;23.332;2023-03-22T05:13:47;94228.75;;;7.79;100.00
13209;BME280;6669;42.678;23.332;2023-03-22T05:16:15;94229.06;;;7.76;100.00
13209;BME280;6669;42.678;23.332;2023-03-22T05:18:43;94238.78;;;7.74;100.00
13209;BME280;6669;42.678;23.332;2023-03-22T05:21:13;94243.13;;;7.74;100.00
13209;BME280;6669;42.678;23.332;2023-03-22T05:23:43;94239.41;;;7.76;100.00
13209;BME280;6669;42.678;23.332;2023-03-22T05:26:11;94240.41;;;7.75;100.00
13209;BME280;6669;42.678;23.332;2023-03-22T05:28:41;94234.88;;;7.87;100.00
13209;BME280;6669;42.678;23.332;2023-03-22T05:31:09;94248.28;;;7.90;100.00
13209;BME280;6669;42.678;23.332;2023-03-22T05:33:41;94227.13;;;7.87;100.00
13209;BME280;6669;42.678;23.332;2023-03-22T05:36:10;94220.81;;;7.81;100.00
13209;BME280;6669;42.678;23.332;2023-03-22T05:38:39;94256.19;;;8.05;100.00
13209;BME280;6669;42.678;23.332;2023-03-22T05:41:07;94252.97;;;7.95;100.00
13209;BME280;6669;42.678;23.332;2023-03-22T05:43:36;94230.34;;;7.80;100.00
13209;BME280;6669;42.678;23.332;2023-03-22T05:46:05;94257.03;;;7.89;100.00
13209;BME280;6669;42.678;23.332;2023-03-22T05:48:33;94226.66;;;7.66;100.00
13209;BME280;6669;42.678;23.332;2023-03-22T05:51:04;94253.63;;;7.89;100.00
13209;BME280;6669;42.678;23.332;2023-03-22T05:53:32;94235.06;;;7.77;100.00
13209;BME280;6669;42.678;23.332;2023-03-22T05:56:02;94244.25;;;7.79;100.00
13209;BME280;6669;42.678;23.332;2023-03-22T05:58:31;94262.84;;;7.99;100.00
13209;BME280;6669;42.678;23.332;2023-03-22T06:01:04;94251.38;;;7.85;100.00
13209;BME280;6669;42.678;23.332;2023-03-22T06:03:32;94267.66;;;8.02;100.00
13209;BME280;6669;42.678;23.332;2023-03-22T06:06:01;94249.91;;;7.91;100.00
13209;BME280;6669;42.678;23.332;2023-03-22T06:08:32;94258.16;;;7.95;100.00
13209;BME280;6669;42.678;23.332;2023-03-22T06:11:02;94254.75;;;7.86;100.00
13209;BME280;6669;42.678;23.332;2023-03-22T06:13:30;94271.09;;;8.03;100.00
13209;BME280;6669;42.678;23.332;2023-03-22T06:15:58;94275.28;;;7.96;100.00
13209;BME280;6669;42.678;23.332;2023-03-22T06:18:26;94283.34;;;8.09;100.00
13209;BME280;6669;42.678;23.332;2023-03-22T06:20:54;94270.41;;;8.09;100.00
13209;BME280;6669;42.678;23.332;2023-03-22T06:23:22;94270.72;;;8.23;100.00
13209;BME280;6669;42.678;23.332;2023-03-22T06:25:50;94281.03;;;8.31;100.00
13209;BME280;6669;42.678;23.332;2023-03-22T06:28:20;94276.94;;;8.45;100.00
13209;BME280;6669;42.678;23.332;2023-03-22T06:30:48;94279.41;;;8.46;100.00
13209;BME280;6669;42.678;23.332;2023-03-22T06:33:16;94273.56;;;8.44;100.00
13209;BME280;6669;42.678;23.332;2023-03-22T06:35:44;94287.81;;;8.40;100.00
13209;BME280;6669;42.678;23.332;2023-03-22T06:38:12;94290.03;;;8.60;100.00
13209;BME280;6669;42.678;23.332;2023-03-22T06:40:40;94291.69;;;8.53;100.00
13209;BME280;6669;42.678;23.332;2023-03-22T06:43:08;94259.84;;;8.27;100.00
13209;BME280;6669;42.678;23.332;2023-03-22T06:45:37;94285.72;;;8.44;100.00
13209;BME280;6669;42.678;23.332;2023-03-22T06:48:05;94295.59;;;8.48;100.00
13209;BME280;6669;42.678;23.332;2023-03-22T06:50:33;94298.66;;;8.44;100.00
13209;BME280;6669;42.678;23.332;2023-03-22T06:53:06;94290.56;;;8.47;100.00
13209;BME280;6669;42.678;23.332;2023-03-22T06:55:34;94288.94;;;8.46;100.00
13209;BME280;6669;42.678;23.332;2023-03-22T06:58:02;94298.47;;;8.54;100.00
13209;BME280;6669;42.678;23.332;2023-03-22T07:00:30;94302.22;;;8.51;100.00
13209;BME280;6669;42.678;23.332;2023-03-22T07:03:01;94308.34;;;8.58;100.00
13209;BME280;6669;42.678;23.332;2023-03-22T07:05:29;94299.31;;;8.54;100.00
13209;BME280;6669;42.678;23.332;2023-03-22T07:07:57;94319.97;;;8.71;100.00
13209;BME280;6669;42.678;23.332;2023-03-22T07:10:25;94303.22;;;8.81;100.00
13209;BME280;6669;42.678;23.332;2023-03-22T07:12:53;94318.88;;;8.96;100.00
13209;BME280;6669;42.678;23.332;2023-03-22T07:15:21;94295.13;;;8.85;100.00
13209;BME280;6669;42.678;23.332;2023-03-22T07:17:50;94311.72;;;8.98;100.00
13209;BME280;6669;42.678;23.332;2023-03-22T07:20:20;94319.19;;;9.02;100.00
13209;BME280;6669;42.678;23.332;2023-03-22T07:22:49;94320.66;;;8.96;100.00
13209;BME280;6669;42.678;23.332;2023-03-22T07:25:17;94324.31;;;8.78;100.00
13209;BME280;6669;42.678;23.332;2023-03-22T07:27:45;94335.06;;;8.98;100.00
13209;BME280;6669;42.678;23.332;2023-03-22T07:30:14;94321.72;;;8.78;100.00
13209;BME280;6669;42.678;23.332;2023-03-22T07:32:42;94338.31;;;9.00;100.00
13209;BME280;6669;42.678;23.332;2023-03-22T07:35:09;94331.59;;;9.14;100.00
13209;BME280;6669;42.678;23.332;2023-03-22T07:37:39;94334.66;;;9.18;100.00
13209;BME280;6669;42.678;23.332;2023-03-22T07:40:08;94334.28;;;9.29;100.00
13209;BME280;6669;42.678;23.332;2023-03-22T07:42:36;94322.41;;;9.35;100.00
13209;BME280;6669;42.678;23.332;2023-03-22T07:45:05;94339.25;;;9.39;100.00
13209;BME280;6669;42.678;23.332;2023-03-22T07:47:33;94350.63;;;9.30;100.00
13209;BME280;6669;42.678;23.332;2023-03-22T07:50:07;94349.28;;;9.11;100.00
13209;BME280;6669;42.678;23.332;2023-03-22T07:52:38;94341.97;;;9.14;100.00
13209;BME280;6669;42.678;23.332;2023-03-22T07:55:07;94352.00;;;9.18;100.00
13209;BME280;6669;42.678;23.332;2023-03-22T07:57:36;94335.63;;;9.17;100.00
13209;BME280;6669;42.678;23.332;2023-03-22T08:00:05;94336.53;;;9.01;100.00
13209;BME280;6669;42.678;23.332;2023-03-22T08:02:35;94355.09;;;9.13;100.00
13209;BME280;6669;42.678;23.332;2023-03-22T08:05:05;94348.78;;;9.07;100.00
13209;BME280;6669;42.678;23.332;2023-03-22T08:07:33;94353.50;;;9.12;100.00
13209;BME280;6669;42.678;23.332;2023-03-22T08:10:04;94351.06;;;9.10;100.00
13209;BME280;6669;42.678;23.332;2023-03-22T08:12:32;94360.63;;;9.10;100.00
13209;BME280;6669;42.678;23.332;2023-03-22T08:15:00;94353.22;;;8.98;100.00
13209;BME280;6669;42.678;23.332;2023-03-22T08:17:28;94349.63;;;9.08;100.00
13209;BME280;6669;42.678;23.332;2023-03-22T08:19:56;94331.00;;;9.04;100.00
13209;BME280;6669;42.678;23.332;2023-03-22T08:22:24;94335.06;;;8.98;100.00
13209;BME280;6669;42.678;23.332;2023-03-22T08:24:55;94348.41;;;9.27;100.00
13209;BME280;6669;42.678;23.332;2023-03-22T08:27:24;94329.09;;;8.98;100.00
13209;BME280;6669;42.678;23.332;2023-03-22T08:29:52;94361.53;;;9.25;100.00
13209;BME280;6669;42.678;23.332;2023-03-22T08:32:20;94346.28;;;9.30;100.00
13209;BME280;6669;42.678;23.332;2023-03-22T08:34:48;94346.94;;;9.24;100.00
13209;BME280;6669;42.678;23.332;2023-03-22T08:37:16;94361.66;;;9.32;100.00
13209;BME280;6669;42.678;23.332;2023-03-22T08:39:45;94347.06;;;9.31;100.00
13209;BME280;6669;42.678;23.332;2023-03-22T08:42:14;94366.09;;;9.46;100.00
13209;BME280;6669;42.678;23.332;2023-03-22T08:44:43;94347.06;;;9.31;100.00
13209;BME280;6669;42.678;23.332;2023-03-22T08:47:12;94371.66;;;9.43;100.00
13209;BME280;6669;42.678;23.332;2023-03-22T08:49:41;94363.56;;;9.38;100.00
13209;BME280;6669;42.678;23.332;2023-03-22T10:06:49;94375.94;;;9.82;100.00
13209;BME280;6669;42.678;23.332;2023-03-22T10:09:25;94380.69;;;9.79;100.00
13209;BME280;6669;42.678;23.332;2023-03-22T10:12:02;94377.44;;;9.77;100.00
13209;BME280;6669;42.678;23.332;2023-03-22T10:14:38;94386.91;;;9.93;100.00
13209;BME280;6669;42.678;23.332;2023-03-22T10:17:10;94382.41;;;9.87;100.00
13209;BME280;6669;42.678;23.332;2023-03-22T10:19:47;94396.94;;;9.96;100.00
13209;BME280;6669;42.678;23.332;2023-03-22T10:22:21;94395.78;;;9.98;100.00
13209;BME280;6669;42.678;23.332;2023-03-22T10:24:52;94379.81;;;9.87;100.00
13209;BME280;6669;42.678;23.332;2023-03-22T10:27:22;94397.72;;;9.96;100.00
13209;BME280;6669;42.678;23.332;2023-03-22T10:29:56;94395.56;;;9.85;100.00
13209;BME280;6669;42.678;23.332;2023-03-22T10:32:29;94378.47;;;9.68;100.00
13209;BME280;6669;42.678;23.332;2023-03-22T10:34:58;94382.13;;;9.81;100.00
13209;BME280;6669;42.678;23.332;2023-03-22T10:37:31;94395.78;;;9.98;100.00
13209;BME280;6669;42.678;23.332;2023-03-22T10:40:02;94378.75;;;9.96;100.00
13209;BME280;6669;42.678;23.332;2023-03-22T10:42:35;94391.72;;;10.19;100.00
13209;BME280;6669;42.678;23.332;2023-03-22T10:45:07;94374.91;;;9.92;100.00
13209;BME280;6669;42.678;23.332;2023-03-22T10:47:42;94345.13;;;9.79;100.00
13209;BME280;6669;42.678;23.332;2023-03-22T10:50:18;94388.00;;;9.98;100.00
13209;BME280;6669;42.678;23.332;2023-03-22T10:52:54;94379.13;;;9.93;100.00
13209;BME280;6669;42.678;23.332;2023-03-22T10:55:25;94397.03;;;10.03;100.00
13209;BME280;6669;42.678;23.332;2023-03-22T10:57:59;94387.75;;;10.08;100.00
13209;BME280;6669;42.678;23.332;2023-03-22T11:00:35;94374.78;;;10.08;100.00
13209;BME280;6669;42.678;23.332;2023-03-22T11:03:07;94363.25;;;9.88;100.00
13209;BME280;6669;42.678;23.332;2023-03-22T11:05:37;94375.41;;;10.10;100.00
13209;BME280;6669;42.678;23.332;2023-03-22T11:08:14;94354.63;;;10.10;100.00
13209;BME280;6669;42.678;23.332;2023-03-22T11:10:48;94361.84;;;10.23;100.00
13209;BME280;6669;42.678;23.332;2023-03-22T11:13:19;94373.56;;;10.34;100.00
13209;BME280;6669;42.678;23.332;2023-03-22T11:15:51;94387.53;;;10.41;100.00
13209;BME280;6669;42.678;23.332;2023-03-22T11:18:21;94352.88;;;10.26;100.00
13209;BME280;6669;42.678;23.332;2023-03-22T11:20:55;94369.78;;;10.22;100.00
13209;BME280;6669;42.678;23.332;2023-03-22T11:23:32;94355.47;;;10.26;100.00
13209;BME280;6669;42.678;23.332;2023-03-22T11:26:07;94353.88;;;10.25;100.00
13209;BME280;6669;42.678;23.332;2023-03-22T11:28:39;94353.31;;;10.14;100.00
13209;BME280;6669;42.678;23.332;2023-03-22T11:31:10;94345.97;;;10.18;100.00
13209;BME280;6669;42.678;23.332;2023-03-22T11:33:52;94379.25;;;10.38;100.00
13209;BME280;6669;42.678;23.332;2023-03-22T11:36:22;94378.66;;;10.51;100.00
13209;BME280;6669;42.678;23.332;2023-03-22T11:38:59;94380.00;;;10.46;100.00
13209;BME280;6669;42.678;23.332;2023-03-22T11:41:28;94376.75;;;10.44;100.00
13209;BME280;6669;42.678;23.332;2023-03-22T11:44:01;94362.25;;;10.27;100.00
13209;BME280;6669;42.678;23.332;2023-03-22T11:46:33;94369.59;;;10.46;100.00
13209;BME280;6669;42.678;23.332;2023-03-22T11:49:04;94331.09;;;10.27;100.00
13209;BME280;6669;42.678;23.332;2023-03-22T11:51:36;94362.25;;;10.50;100.00
13209;BME280;6669;42.678;23.332;2023-03-22T11:54:09;94353.56;;;10.43;100.00
13209;BME280;6669;42.678;23.332;2023-03-22T11:56:44;94354.47;;;10.27;100.00
13209;BME280;6669;42.678;23.332;2023-03-22T11:59:15;94359.84;;;10.25;100.00
13209;BME280;6669;42.678;23.332;2023-03-22T12:01:48;94373.66;;;10.26;100.00
13209;BME280;6669;42.678;23.332;2023-03-22T12:04:20;94375.34;;;10.19;100.00
13209;BME280;6669;42.678;23.332;2023-03-22T12:06:51;94378.50;;;10.29;100.00
13209;BME280;6669;42.678;23.332;2023-03-22T12:09:30;94380.56;;;10.34;100.00
13209;BME280;6669;42.678;23.332;2023-03-22T12:12:03;94372.94;;;10.32;100.00
13209;BME280;6669;42.678;23.332;2023-03-22T12:14:39;94376.47;;;10.39;100.00
13209;BME280;6669;42.678;23.332;2023-03-22T12:17:15;94341.66;;;10.25;100.00
13209;BME280;6669;42.678;23.332;2023-03-22T12:19:53;94363.09;;;10.27;100.00
13209;BME280;6669;42.678;23.332;2023-03-22T12:22:28;94354.75;;;10.17;100.00
13209;BME280;6669;42.678;23.332;2023-03-22T12:24:59;94376.84;;;10.13;100.00
13209;BME280;6669;42.678;23.332;2023-03-22T12:27:32;94367.97;;;10.07;100.00
13209;BME280;6669;42.678;23.332;2023-03-22T12:30:06;94362.78;;;10.07;100.00
13209;BME280;6669;42.678;23.332;2023-03-22T12:32:40;94367.16;;;10.07;100.00
13209;BME280;6669;42.678;23.332;2023-03-22T12:35:12;94351.59;;;10.22;100.00
13209;BME280;6669;42.678;23.332;2023-03-22T12:37:45;94362.91;;;10.29;100.00
13209;BME280;6669;42.678;23.332;2023-03-22T12:40:22;94333.09;;;10.25;100.00
13209;BME280;6669;42.678;23.332;2023-03-22T12:42:59;94358.69;;;10.66;100.00
13209;BME280;6669;42.678;23.332;2023-03-22T12:45:32;94351.59;;;10.75;100.00
13209;BME280;6669;42.678;23.332;2023-03-22T12:48:05;94362.00;;;10.90;100.00
13209;BME280;6669;42.678;23.332;2023-03-22T12:50:42;94353.63;;;11.09;100.00
13209;BME280;6669;42.678;23.332;2023-03-22T12:53:14;94351.41;;;11.21;100.00
13209;BME280;6669;42.678;23.332;2023-03-22T12:55:46;94348.84;;;11.28;100.00
13209;BME280;6669;42.678;23.332;2023-03-22T12:58:19;94346.88;;;11.30;100.00
13209;BME280;6669;42.678;23.332;2023-03-22T13:00:50;94357.19;;;11.38;100.00
13209;BME280;6669;42.678;23.332;2023-03-22T13:03:24;94356.25;;;11.46;100.00
13209;BME280;6669;42.678;23.332;2023-03-22T13:06:05;94331.66;;;11.12;100.00
13209;BME280;6669;42.678;23.332;2023-03-22T13:11:46;94355.97;;;11.19;100.00
13209;BME280;6669;42.678;23.332;2023-03-22T13:14:53;94354.88;;;11.13;100.00
13209;BME280;6669;42.678;23.332;2023-03-22T13:17:43;94357.78;;;11.19;100.00
13209;BME280;6669;42.678;23.332;2023-03-22T13:20:33;94361.44;;;11.24;100.00
13209;BME280;6669;42.678;23.332;2023-03-22T13:23:10;94341.25;;;11.11;100.00
13209;BME280;6669;42.678;23.332;2023-03-22T13:26:03;94353.16;;;11.21;100.00
13209;BME280;6669;42.678;23.332;2023-03-22T13:28:33;94363.56;;;11.21;100.00
13209;BME280;6669;42.678;23.332;2023-03-22T13:31:04;94309.63;;;10.93;100.00
13209;BME280;6669;42.678;23.332;2023-03-22T13:33:35;94333.53;;;11.18;100.00
13209;BME280;6669;42.678;23.332;2023-03-22T13:36:06;94325.94;;;11.38;100.00
13209;BME280;6669;42.678;23.332;2023-03-22T13:38:54;94326.50;;;11.55;100.00
13209;BME280;6669;42.678;23.332;2023-03-22T13:41:26;94328.44;;;11.68;100.00
13209;BME280;6669;42.678;23.332;2023-03-22T13:43:58;94356.53;;;12.16;100.00
13209;BME280;6669;42.678;23.332;2023-03-22T13:46:42;94358.97;;;12.18;100.00
13209;BME280;6669;42.678;23.332;2023-03-22T13:52:06;94360.06;;;13.35;100.00
13209;BME280;6669;42.678;23.332;2023-03-22T13:54:43;94350.50;;;13.56;100.00
13209;BME280;6669;42.678;23.332;2023-03-22T13:57:38;94364.97;;;13.52;100.00
13209;BME280;6669;42.678;23.332;2023-03-22T14:00:20;94357.34;;;13.64;100.00
13209;BME280;6669;42.678;23.332;2023-03-22T14:03:02;94337.97;;;13.31;100.00
13209;BME280;6669;42.678;23.332;2023-03-22T14:05:35;94339.53;;;13.19;100.00
13209;BME280;6669;42.678;23.332;2023-03-22T14:08:04;94350.50;;;13.07;100.00
13209;BME280;6669;42.678;23.332;2023-03-22T14:10:39;94345.94;;;12.81;100.00
13209;BME280;6669;42.678;23.332;2023-03-22T14:13:15;94339.91;;;12.74;100.00
13209;BME280;6669;42.678;23.332;2023-03-22T14:15:49;94344.53;;;12.79;100.00
13209;BME280;6669;42.678;23.332;2023-03-22T14:18:20;94347.91;;;12.72;100.00
13209;BME280;6669;42.678;23.332;2023-03-22T14:20:54;94325.44;;;12.36;100.00
13209;BME280;6669;42.678;23.332;2023-03-22T14:23:25;94361.16;;;12.42;100.00
13209;BME280;6669;42.678;23.332;2023-03-22T14:26:06;94364.56;;;12.15;100.00
13209;BME280;6669;42.678;23.332;2023-03-22T14:28:35;94329.84;;;11.92;100.00
13209;BME280;6669;42.678;23.332;2023-03-22T14:31:06;94356.50;;;12.09;100.00
13209;BME280;6669;42.678;23.332;2023-03-22T14:33:40;94324.31;;;11.96;100.00
13209;BME280;6669;42.678;23.332;2023-03-22T14:36:12;94350.53;;;12.16;100.00
13209;BME280;6669;42.678;23.332;2023-03-22T14:38:44;94297.72;;;11.78;100.00
13209;BME280;6669;42.678;23.332;2023-03-22T14:41:18;94358.00;;;12.25;100.00
13209;BME280;6669;42.678;23.332;2023-03-22T14:43:47;94356.66;;;12.30;100.00
13209;BME280;6669;42.678;23.332;2023-03-22T14:46:20;94358.97;;;12.18;100.00
13209;BME280;6669;42.678;23.332;2023-03-22T14:48:51;94374.22;;;12.21;100.00